Tuesday, May 24, 2016, 7:21 PM EDT

KPHF, Williamsburg International Airport

Location: Newport News, VA, United States Lat: 37.133
Local Time: 7:21 PM EDT (23:21 GMT) Lon: -76.5
Time Zone: US/Eastern Elev: 42 ft

Show me the last for .
Show Decoded

2016-05-24 18:54 METAR KPHF 242254Z 32007KT 10SM FEW090 27/12 A3003 RMK AO2 SLP167 T02670122 =
2016-05-24 17:54 METAR KPHF 242154Z 30011KT 10SM CLR 27/11 A3002 RMK AO2 SLP166 T02720111 =
2016-05-24 16:54 METAR KPHF 242054Z 27010KT 10SM CLR 28/12 A3002 RMK AO2 SLP164 T02780122 55004 =
2016-05-24 15:54 METAR KPHF 241954Z 27013G18KT 10SM CLR 27/12 A3001 RMK AO2 SLP163 T02720117 =
2016-05-24 14:54 METAR KPHF 241854Z 28011KT 10SM CLR 27/14 A3002 RMK AO2 SLP165 T02720139 =
2016-05-24 13:54 METAR KPHF 241754Z 27013KT 10SM CLR 27/13 A3003 RMK AO2 SLP169 T02670133 10267
                 20156 58002 =
2016-05-24 12:54 METAR KPHF 241654Z 31009KT 10SM CLR 25/14 A3004 RMK AO2 SLP171 T02500139 =
2016-05-24 11:54 METAR KPHF 241554Z 27012KT 10SM CLR 24/14 A3004 RMK AO2 SLP171 T02390139 =
2016-05-24 10:54 METAR KPHF 241454Z 27008KT 10SM CLR 23/15 A3004 RMK AO2 SLP171 T02280150 51012 =
2016-05-24 09:54 METAR KPHF 241354Z 25006KT 10SM CLR 20/14 A3003 RMK AO2 SLP168 T02000144 =
2016-05-24 08:54 METAR KPHF 241254Z 27008KT 10SM CLR 17/14 A3003 RMK AO2 SLP168 T01720139 =
2016-05-24 07:54 METAR KPHF 241154Z 24008KT 10SM CLR 16/13 A3000 RMK AO2 SLP159 70024 T01560133
                 10156 20117 51010 =
2016-05-24 06:54 METAR KPHF 241054Z 25006KT 10SM CLR 14/13 A3000 RMK AO2 SLP157 T01440133 =
2016-05-24 05:54 METAR KPHF 240954Z 27006KT 10SM BKN100 13/13 A2999 RMK AO2 SLP153 T01330128 =
2016-05-24 05:00 METAR KPHF 240900Z 23006KT 3SM BR FEW002 12/12 A2997 RMK AO2 T01170117 =
2016-05-24 04:58 METAR KPHF 240858Z 24005KT 1 1/4SM BR FEW002 12/12 A2997 =
2016-05-24 04:54 METAR KPHF 240854Z 24004KT 3/4SM BR VV002 12/12 A2997 RMK AO2 SLP149 T01220117
                 53006 =
2016-05-24 04:44 METAR KPHF 240844Z 00000KT 1/2SM FG VV002 12/12 A2997 RMK AO2 T01220122 =
2016-05-24 04:35 METAR KPHF 240835Z 00000KT 3/4SM BR FEW002 SCT110 12/12 A2997 RMK AO2 T01220117
                 =
2016-05-24 04:19 METAR KPHF 240819Z 00000KT 2 1/2SM BR FEW100 12/12 A2997 RMK AO2 T01220122 =
2016-05-24 04:10 METAR KPHF 240810Z 00000KT 1/2SM FG SCT090 13/12 A2996 RMK AO2 T01280122 =
2016-05-24 04:00 METAR KPHF 240800Z 00000KT 1 3/4SM BR SCT090 13/13 A2996 RMK AO2 T01330128 =
2016-05-24 03:54 METAR KPHF 240754Z 00000KT 8SM SCT090 13/13 A2996 RMK AO2 SLP146 T01330128 =
2016-05-24 02:54 METAR KPHF 240654Z 28003KT 10SM BKN100 16/14 A2996 RMK AO2 SLP144 T01560139 =
2016-05-24 01:54 METAR KPHF 240554Z 28007KT 10SM OVC100 16/14 A2996 RMK AO2 SLP143 T01560144
                 10172 20144 58003 =
2016-05-24 00:54 METAR KPHF 240454Z 28003KT 10SM SCT110 15/13 A2997 RMK AO2 SLP149 T01500133
                 402000128 =
2016-05-23 23:54 METAR KPHF 240354Z 30004KT 10SM CLR 15/13 A2997 RMK AO2 SLP147 T01500133 =
2016-05-23 22:54 METAR KPHF 240254Z AUTO 29004KT 10SM BKN080 16/13 A2997 RMK AO2 SLP147 T01610133
                 53011 =
2016-05-23 21:54 METAR KPHF 240154Z AUTO 00000KT 10SM SCT046 BKN085 16/14 A2996 RMK AO2 SLP145
                 T01560139 =
2016-05-23 20:54 METAR KPHF 240054Z AUTO 24005KT 10SM FEW050 BKN075 OVC090 17/12 A2994 RMK AO2
                 SLP138 T01670117 =
2016-05-23 19:54 METAR KPHF 232354Z AUTO 00000KT 10SM BKN060 BKN075 17/12 A2994 RMK AO2 SLP136
                 60000 T01720122 10200 20172 53008 =

Support USWX by starting your Amazon purchase here.